sensor_id;sensor_type;location;lat;lon;timestamp;pressure;altitude;pressure_sealevel;temperature;humidity
5595;BME280;1003;48.002;7.788;2023-04-21T00:00:31;99070.47;;;1.21;100.00
5595;BME280;1003;48.002;7.788;2023-04-21T00:02:59;99080.25;;;1.16;100.00
5595;BME280;1003;48.002;7.788;2023-04-21T00:05:26;99085.34;;;1.22;100.00
5595;BME280;1003;48.002;7.788;2023-04-21T00:07:53;99077.97;;;1.24;100.00
5595;BME280;1003;48.002;7.788;2023-04-21T00:10:22;99079.38;;;1.14;100.00
5595;BME280;1003;48.002;7.788;2023-04-21T00:12:49;99072.22;;;1.25;100.00
5595;BME280;1003;48.002;7.788;2023-04-21T00:15:16;99090.19;;;1.51;100.00
5595;BME280;1003;48.002;7.788;2023-04-21T00:17:43;99092.06;;;1.26;100.00
5595;BME280;1003;48.002;7.788;2023-04-21T00:20:11;99085.06;;;1.12;100.00
5595;BME280;1003;48.002;7.788;2023-04-21T00:22:39;99088.09;;;1.01;100.00
5595;BME280;1003;48.002;7.788;2023-04-21T00:25:07;99078.56;;;0.84;100.00
5595;BME280;1003;48.002;7.788;2023-04-21T00:27:35;99083.22;;;1.03;100.00
5595;BME280;1003;48.002;7.788;2023-04-21T00:30:03;99086.94;;;0.89;100.00
5595;BME280;1003;48.002;7.788;2023-04-21T00:32:30;99089.75;;;0.71;100.00
5595;BME280;1003;48.002;7.788;2023-04-21T00:34:57;99096.13;;;0.63;100.00
5595;BME280;1003;48.002;7.788;2023-04-21T00:37:24;99101.88;;;0.62;100.00
5595;BME280;1003;48.002;7.788;2023-04-21T00:39:51;99117.84;;;1.03;100.00
5595;BME280;1003;48.002;7.788;2023-04-21T00:42:18;99121.84;;;0.98;100.00
5595;BME280;1003;48.002;7.788;2023-04-21T00:44:47;99131.19;;;0.78;100.00
5595;BME280;1003;48.002;7.788;2023-04-21T00:47:14;99128.22;;;0.61;100.00
5595;BME280;1003;48.002;7.788;2023-04-21T00:49:41;99136.28;;;0.54;100.00
5595;BME280;1003;48.002;7.788;2023-04-21T00:52:08;99142.78;;;0.52;100.00
5595;BME280;1003;48.002;7.788;2023-04-21T00:54:36;99151.88;;;0.53;100.00
5595;BME280;1003;48.002;7.788;2023-04-21T00:57:03;99153.47;;;0.51;100.00
5595;BME280;1003;48.002;7.788;2023-04-21T00:59:33;99159.09;;;0.45;100.00
5595;BME280;1003;48.002;7.788;2023-04-21T01:02:02;99172.09;;;0.40;100.00
5595;BME280;1003;48.002;7.788;2023-04-21T01:04:30;99180.25;;;0.37;100.00
5595;BME280;1003;48.002;7.788;2023-04-21T01:07:03;99192.75;;;0.42;100.00
5595;BME280;1003;48.002;7.788;2023-04-21T01:09:31;99194.50;;;0.44;100.00
5595;BME280;1003;48.002;7.788;2023-04-21T01:12:01;99219.94;;;0.69;100.00
5595;BME280;1003;48.002;7.788;2023-04-21T01:14:29;99231.47;;;0.68;100.00
5595;BME280;1003;48.002;7.788;2023-04-21T01:16:56;99241.53;;;0.74;100.00
5595;BME280;1003;48.002;7.788;2023-04-21T01:19:31;99245.28;;;0.62;100.00
5595;BME280;1003;48.002;7.788;2023-04-21T01:22:00;99262.06;;;0.70;100.00
5595;BME280;1003;48.002;7.788;2023-04-21T01:24:36;99259.44;;;0.66;100.00
5595;BME280;1003;48.002;7.788;2023-04-21T01:27:08;99260.84;;;0.59;100.00
5595;BME280;1003;48.002;7.788;2023-04-21T01:29:37;99271.47;;;0.55;100.00
5595;BME280;1003;48.002;7.788;2023-04-21T01:32:07;99265.44;;;0.47;100.00
5595;BME280;1003;48.002;7.788;2023-04-21T01:34:35;99272.31;;;0.56;100.00
5595;BME280;1003;48.002;7.788;2023-04-21T01:37:06;99287.16;;;0.56;100.00
5595;BME280;1003;48.002;7.788;2023-04-21T01:39:37;99309.41;;;0.56;100.00
5595;BME280;1003;48.002;7.788;2023-04-21T01:42:05;99324.25;;;0.56;100.00
5595;BME280;1003;48.002;7.788;2023-04-21T01:44:32;99329.91;;;0.53;100.00
5595;BME280;1003;48.002;7.788;2023-04-21T01:46:59;99345.31;;;0.44;100.00
5595;BME280;1003;48.002;7.788;2023-04-21T01:49:26;99356.72;;;0.41;100.00
5595;BME280;1003;48.002;7.788;2023-04-21T01:51:53;99361.50;;;0.36;100.00
5595;BME280;1003;48.002;7.788;2023-04-21T01:54:22;99363.28;;;0.40;100.00
5595;BME280;1003;48.002;7.788;2023-04-21T01:56:49;99384.78;;;0.43;100.00
5595;BME280;1003;48.002;7.788;2023-04-21T01:59:16;99396.47;;;0.47;100.00
5595;BME280;1003;48.002;7.788;2023-04-21T02:01:43;99405.72;;;0.52;100.00
5595;BME280;1003;48.002;7.788;2023-04-21T02:04:10;99412.31;;;0.52;100.00
5595;BME280;1003;48.002;7.788;2023-04-21T02:06:37;99429.88;;;0.60;100.00
5595;BME280;1003;48.002;7.788;2023-04-21T02:09:04;99436.59;;;0.64;100.00
5595;BME280;1003;48.002;7.788;2023-04-21T02:11:33;99444.94;;;0.66;100.00
5595;BME280;1003;48.002;7.788;2023-04-21T02:14:00;99453.03;;;0.62;100.00
5595;BME280;1003;48.002;7.788;2023-04-21T02:16:27;99466.13;;;0.59;100.00
5595;BME280;1003;48.002;7.788;2023-04-21T02:18:56;99468.59;;;0.59;100.00
5595;BME280;1003;48.002;7.788;2023-04-21T02:21:24;99474.41;;;0.60;100.00
5595;BME280;1003;48.002;7.788;2023-04-21T02:23:52;99483.22;;;0.53;100.00
5595;BME280;1003;48.002;7.788;2023-04-21T02:26:19;99484.69;;;0.48;100.00
5595;BME280;1003;48.002;7.788;2023-04-21T02:28:48;99492.81;;;0.44;100.00
5595;BME280;1003;48.002;7.788;2023-04-21T02:31:16;99501.00;;;0.43;100.00
5595;BME280;1003;48.002;7.788;2023-04-21T02:33:43;99509.13;;;0.39;100.00
5595;BME280;1003;48.002;7.788;2023-04-21T02:36:11;99515.50;;;0.56;100.00
5595;BME280;1003;48.002;7.788;2023-04-21T02:38:38;99536.69;;;0.73;100.00
5595;BME280;1003;48.002;7.788;2023-04-21T02:41:05;99539.47;;;0.59;100.00
5595;BME280;1003;48.002;7.788;2023-04-21T02:43:32;99532.28;;;0.42;100.00
5595;BME280;1003;48.002;7.788;2023-04-21T02:46:05;99534.94;;;0.24;100.00
5595;BME280;1003;48.002;7.788;2023-04-21T02:48:32;99534.72;;;0.18;100.00
5595;BME280;1003;48.002;7.788;2023-04-21T02:51:00;99537.66;;;0.08;100.00
5595;BME280;1003;48.002;7.788;2023-04-21T02:53:27;99540.56;;;-0.02;100.00
5595;BME280;1003;48.002;7.788;2023-04-21T02:55:54;99558.47;;;0.15;100.00
5595;BME280;1003;48.002;7.788;2023-04-21T02:58:21;99562.34;;;0.08;100.00
5595;BME280;1003;48.002;7.788;2023-04-21T03:00:48;99562.59;;;-0.07;100.00
5595;BME280;1003;48.002;7.788;2023-04-21T03:03:16;99570.84;;;-0.06;100.00
5595;BME280;1003;48.002;7.788;2023-04-21T03:05:43;99564.66;;;-0.17;100.00
5595;BME280;1003;48.002;7.788;2023-04-21T03:08:10;99570.44;;;-0.17;100.00
5595;BME280;1003;48.002;7.788;2023-04-21T03:10:38;99573.66;;;-0.19;100.00
5595;BME280;1003;48.002;7.788;2023-04-21T03:13:05;99585.81;;;-0.03;100.00
5595;BME280;1003;48.002;7.788;2023-04-21T03:15:32;99583.81;;;-0.12;100.00
5595;BME280;1003;48.002;7.788;2023-04-21T03:17:59;99590.06;;;-0.21;100.00
5595;BME280;1003;48.002;7.788;2023-04-21T03:20:28;99598.78;;;-0.30;100.00
5595;BME280;1003;48.002;7.788;2023-04-21T03:22:55;99595.88;;;-0.40;100.00
5595;BME280;1003;48.002;7.788;2023-04-21T03:25:22;99595.84;;;-0.61;100.00
5595;BME280;1003;48.002;7.788;2023-04-21T03:27:52;99597.88;;;-0.72;100.00
5595;BME280;1003;48.002;7.788;2023-04-21T03:30:20;99591.00;;;-0.79;100.00
5595;BME280;1003;48.002;7.788;2023-04-21T03:32:47;99593.28;;;-0.84;100.00
5595;BME280;1003;48.002;7.788;2023-04-21T03:35:15;99609.66;;;-0.86;100.00
5595;BME280;1003;48.002;7.788;2023-04-21T03:37:43;99627.66;;;-0.87;100.00
5595;BME280;1003;48.002;7.788;2023-04-21T03:40:10;99656.13;;;-0.75;100.00
5595;BME280;1003;48.002;7.788;2023-04-21T03:42:37;99653.91;;;-0.89;100.00
5595;BME280;1003;48.002;7.788;2023-04-21T03:45:07;99768.56;;;-1.00;100.00
5595;BME280;1003;48.002;7.788;2023-04-21T03:47:35;99801.81;;;-0.92;100.00
5595;BME280;1003;48.002;7.788;2023-04-21T03:50:06;99824.50;;;-0.99;100.00
5595;BME280;1003;48.002;7.788;2023-04-21T03:52:33;99851.59;;;-1.00;100.00
5595;BME280;1003;48.002;7.788;2023-04-21T03:55:02;99883.22;;;-0.92;100.00
5595;BME280;1003;48.002;7.788;2023-04-21T03:57:33;99896.22;;;-0.96;100.00
5595;BME280;1003;48.002;7.788;2023-04-21T04:00:00;99921.94;;;-0.91;100.00
5595;BME280;1003;48.002;7.788;2023-04-21T04:02:29;99935.31;;;-1.03;100.00
5595;BME280;1003;48.002;7.788;2023-04-21T04:04:56;99955.34;;;-1.14;100.00
5595;BME280;1003;48.002;7.788;2023-04-21T04:07:23;99974.31;;;-0.96;100.00
5595;BME280;1003;48.002;7.788;2023-04-21T04:09:51;100006.44;;;-0.78;100.00
5595;BME280;1003;48.002;7.788;2023-04-21T04:12:19;100020.94;;;-0.85;100.00
5595;BME280;1003;48.002;7.788;2023-04-21T04:14:46;100033.44;;;-0.98;100.00
5595;BME280;1003;48.002;7.788;2023-04-21T04:17:13;100042.16;;;-1.04;100.00
5595;BME280;1003;48.002;7.788;2023-04-21T04:19:40;100048.47;;;-1.10;100.00
5595;BME280;1003;48.002;7.788;2023-04-21T04:22:07;100055.88;;;-1.26;100.00
5595;BME280;1003;48.002;7.788;2023-04-21T04:24:34;100052.84;;;-1.37;100.00
5595;BME280;1003;48.002;7.788;2023-04-21T04:27:02;100062.56;;;-1.40;100.00
5595;BME280;1003;48.002;7.788;2023-04-21T04:29:31;100070.13;;;-1.37;100.00
5595;BME280;1003;48.002;7.788;2023-04-21T04:31:59;100090.31;;;-1.27;100.00
5595;BME280;1003;48.002;7.788;2023-04-21T04:34:28;100113.03;;;-1.02;100.00
5595;BME280;1003;48.002;7.788;2023-04-21T04:36:57;100123.81;;;-1.00;100.00
5595;BME280;1003;48.002;7.788;2023-04-21T04:39:24;100129.72;;;-1.13;100.00
5595;BME280;1003;48.002;7.788;2023-04-21T04:41:51;100156.34;;;-0.91;100.00
5595;BME280;1003;48.002;7.788;2023-04-21T04:44:19;100171.84;;;-0.77;100.00
5595;BME280;1003;48.002;7.788;2023-04-21T04:46:47;100183.66;;;-0.71;100.00
5595;BME280;1003;48.002;7.788;2023-04-21T04:49:14;100199.63;;;-0.65;100.00
5595;BME280;1003;48.002;7.788;2023-04-21T04:51:42;100210.50;;;-0.77;100.00
5595;BME280;1003;48.002;7.788;2023-04-21T04:54:09;100204.16;;;-0.89;100.00
5595;BME280;1003;48.002;7.788;2023-04-21T04:56:36;100207.00;;;-0.81;100.00
5595;BME280;1003;48.002;7.788;2023-04-21T04:59:03;100226.03;;;-0.64;100.00
5595;BME280;1003;48.002;7.788;2023-04-21T05:01:30;100227.97;;;-0.58;100.00
5595;BME280;1003;48.002;7.788;2023-04-21T05:03:58;100237.44;;;-0.49;100.00
5595;BME280;1003;48.002;7.788;2023-04-21T05:06:25;100259.66;;;-0.49;100.00
5595;BME280;1003;48.002;7.788;2023-04-21T05:08:53;100262.13;;;-0.49;100.00
5595;BME280;1003;48.002;7.788;2023-04-21T05:11:21;100267.63;;;-0.39;100.00
5595;BME280;1003;48.002;7.788;2023-04-21T05:13:48;100299.84;;;-0.21;100.00
5595;BME280;1003;48.002;7.788;2023-04-21T05:16:15;100320.28;;;-0.07;100.00
5595;BME280;1003;48.002;7.788;2023-04-21T05:18:42;100836.13;;;0.10;100.00
5595;BME280;1003;48.002;7.788;2023-04-21T05:21:10;100864.31;;;0.27;100.00
5595;BME280;1003;48.002;7.788;2023-04-21T05:23:37;100888.31;;;0.43;100.00
5595;BME280;1003;48.002;7.788;2023-04-21T05:26:04;100924.94;;;0.63;100.00
5595;BME280;1003;48.002;7.788;2023-04-21T05:28:31;100962.28;;;0.81;100.00
5595;BME280;1003;48.002;7.788;2023-04-21T05:31:00;100943.00;;;0.90;100.00
5595;BME280;1003;48.002;7.788;2023-04-21T05:33:27;100954.97;;;0.97;100.00
5595;BME280;1003;48.002;7.788;2023-04-21T05:35:56;100984.78;;;1.14;100.00
5595;BME280;1003;48.002;7.788;2023-04-21T05:38:24;101018.94;;;1.34;100.00
5595;BME280;1003;48.002;7.788;2023-04-21T05:40:53;101039.38;;;1.45;100.00
5595;BME280;1003;48.002;7.788;2023-04-21T05:43:20;101054.09;;;1.56;100.00
5595;BME280;1003;48.002;7.788;2023-04-21T05:45:48;101095.19;;;1.82;100.00
5595;BME280;1003;48.002;7.788;2023-04-21T05:48:15;101125.53;;;2.08;100.00
5595;BME280;1003;48.002;7.788;2023-04-21T05:50:43;101150.16;;;2.34;100.00
5595;BME280;1003;48.002;7.788;2023-04-21T05:53:10;101193.81;;;2.77;100.00
5595;BME280;1003;48.002;7.788;2023-04-21T05:55:38;101269.38;;;3.75;100.00
5595;BME280;1003;48.002;7.788;2023-04-21T05:58:05;101297.94;;;4.66;100.00
5595;BME280;1003;48.002;7.788;2023-04-21T06:00:32;101227.09;;;5.71;100.00
5595;BME280;1003;48.002;7.788;2023-04-21T06:02:59;100951.22;;;6.21;100.00
5595;BME280;1003;48.002;7.788;2023-04-21T06:05:26;100677.09;;;6.38;100.00
5595;BME280;1003;48.002;7.788;2023-04-21T06:07:53;100588.22;;;6.73;100.00
5595;BME280;1003;48.002;7.788;2023-04-21T06:10:20;100505.59;;;7.32;100.00
5595;BME280;1003;48.002;7.788;2023-04-21T06:12:49;100473.88;;;7.31;100.00
5595;BME280;1003;48.002;7.788;2023-04-21T06:15:16;100443.84;;;7.67;100.00
5595;BME280;1003;48.002;7.788;2023-04-21T06:17:43;100426.50;;;8.56;100.00
5595;BME280;1003;48.002;7.788;2023-04-21T06:20:11;100329.44;;;8.48;100.00
5595;BME280;1003;48.002;7.788;2023-04-21T06:22:38;100281.13;;;9.12;100.00
5595;BME280;1003;48.002;7.788;2023-04-21T06:25:06;100141.69;;;8.58;100.00
5595;BME280;1003;48.002;7.788;2023-04-21T06:27:33;100070.38;;;9.06;100.00
5595;BME280;1003;48.002;7.788;2023-04-21T06:30:02;100033.06;;;10.83;100.00
5595;BME280;1003;48.002;7.788;2023-04-21T06:32:29;99776.41;;;9.62;100.00
5595;BME280;1003;48.002;7.788;2023-04-21T06:34:56;99607.44;;;9.97;100.00
5595;BME280;1003;48.002;7.788;2023-04-21T06:37:23;99343.94;;;9.63;100.00
5595;BME280;1003;48.002;7.788;2023-04-21T06:39:50;98825.69;;;10.60;100.00
5595;BME280;1003;48.002;7.788;2023-04-21T06:42:17;98659.81;;;10.13;100.00
5595;BME280;1003;48.002;7.788;2023-04-21T06:44:44;98531.34;;;11.15;100.00
5595;BME280;1003;48.002;7.788;2023-04-21T06:47:12;98403.78;;;11.19;100.00
5595;BME280;1003;48.002;7.788;2023-04-21T06:49:41;98322.91;;;10.35;100.00
5595;BME280;1003;48.002;7.788;2023-04-21T06:52:08;98277.41;;;10.80;100.00
5595;BME280;1003;48.002;7.788;2023-04-21T06:54:36;98204.69;;;11.62;100.00
5595;BME280;1003;48.002;7.788;2023-04-21T06:57:03;98218.75;;;11.69;100.00
5595;BME280;1003;48.002;7.788;2023-04-21T06:59:30;98194.13;;;11.79;100.00
5595;BME280;1003;48.002;7.788;2023-04-21T07:01:57;98162.38;;;10.89;100.00
5595;BME280;1003;48.002;7.788;2023-04-21T07:04:25;98137.69;;;11.02;100.00
5595;BME280;1003;48.002;7.788;2023-04-21T07:06:56;98139.22;;;11.64;100.00
5595;BME280;1003;48.002;7.788;2023-04-21T07:09:24;98135.63;;;10.87;100.00
5595;BME280;1003;48.002;7.788;2023-04-21T07:11:53;98144.75;;;10.29;100.00
5595;BME280;1003;48.002;7.788;2023-04-21T07:14:20;98143.44;;;11.07;100.00
5595;BME280;1003;48.002;7.788;2023-04-21T07:16:47;98146.44;;;11.18;100.00
5595;BME280;1003;48.002;7.788;2023-04-21T07:19:14;98140.22;;;11.32;100.00
5595;BME280;1003;48.002;7.788;2023-04-21T07:21:42;98134.34;;;11.59;100.00
5595;BME280;1003;48.002;7.788;2023-04-21T07:24:09;98134.13;;;11.65;100.00
5595;BME280;1003;48.002;7.788;2023-04-21T07:26:36;98113.31;;;12.38;100.00
5595;BME280;1003;48.002;7.788;2023-04-21T07:29:03;98114.78;;;12.44;100.00
5595;BME280;1003;48.002;7.788;2023-04-21T07:31:30;98115.00;;;12.84;100.00
5595;BME280;1003;48.002;7.788;2023-04-21T07:33:57;98104.84;;;13.09;100.00
5595;BME280;1003;48.002;7.788;2023-04-21T07:36:24;98100.06;;;13.02;100.00
5595;BME280;1003;48.002;7.788;2023-04-21T07:38:54;98105.88;;;11.83;100.00
5595;BME280;1003;48.002;7.788;2023-04-21T07:41:21;98119.16;;;12.39;100.00
5595;BME280;1003;48.002;7.788;2023-04-21T07:43:48;98102.47;;;12.59;100.00
5595;BME280;1003;48.002;7.788;2023-04-21T07:46:15;98080.78;;;13.24;100.00
5595;BME280;1003;48.002;7.788;2023-04-21T07:48:42;98084.66;;;13.09;100.00
5595;BME280;1003;48.002;7.788;2023-04-21T07:51:11;98074.22;;;13.62;100.00
5595;BME280;1003;48.002;7.788;2023-04-21T07:53:38;98054.16;;;13.37;100.00
5595;BME280;1003;48.002;7.788;2023-04-21T07:56:06;98063.25;;;12.04;100.00
5595;BME280;1003;48.002;7.788;2023-04-21T07:58:33;98080.31;;;12.68;100.00
5595;BME280;1003;48.002;7.788;2023-04-21T08:01:00;98060.41;;;12.83;100.00
5595;BME280;1003;48.002;7.788;2023-04-21T08:03:27;98062.31;;;11.55;100.00
5595;BME280;1003;48.002;7.788;2023-04-21T08:05:54;98062.97;;;10.79;100.00
5595;BME280;1003;48.002;7.788;2023-04-21T08:08:22;98067.44;;;10.40;100.00
5595;BME280;1003;48.002;7.788;2023-04-21T08:10:49;98078.34;;;10.39;100.00
5595;BME280;1003;48.002;7.788;2023-04-21T08:13:17;98062.88;;;11.10;100.00
5595;BME280;1003;48.002;7.788;2023-04-21T08:15:45;98062.25;;;10.13;100.00
5595;BME280;1003;48.002;7.788;2023-04-21T08:18:13;98059.13;;;10.95;100.00
5595;BME280;1003;48.002;7.788;2023-04-21T08:20:41;98044.69;;;11.02;100.00
5595;BME280;1003;48.002;7.788;2023-04-21T08:23:08;98036.94;;;10.82;100.00
5595;BME280;1003;48.002;7.788;2023-04-21T08:25:35;98029.66;;;11.53;100.00
5595;BME280;1003;48.002;7.788;2023-04-21T08:28:02;98030.81;;;11.43;100.00
5595;BME280;1003;48.002;7.788;2023-04-21T08:30:31;98019.53;;;11.02;100.00
5595;BME280;1003;48.002;7.788;2023-04-21T08:32:58;98025.94;;;10.84;100.00
5595;BME280;1003;48.002;7.788;2023-04-21T08:35:26;98029.41;;;11.35;100.00
5595;BME280;1003;48.002;7.788;2023-04-21T08:37:53;98026.41;;;11.25;100.00
5595;BME280;1003;48.002;7.788;2023-04-21T08:40:20;98022.88;;;12.07;100.00
5595;BME280;1003;48.002;7.788;2023-04-21T08:42:48;98009.81;;;12.43;100.00
5595;BME280;1003;48.002;7.788;2023-04-21T08:45:15;97992.56;;;12.32;100.00
5595;BME280;1003;48.002;7.788;2023-04-21T08:47:45;97990.03;;;11.60;100.00
5595;BME280;1003;48.002;7.788;2023-04-21T08:50:13;98000.72;;;11.14;100.00
5595;BME280;1003;48.002;7.788;2023-04-21T08:52:40;97983.47;;;11.29;100.00
5595;BME280;1003;48.002;7.788;2023-04-21T08:55:10;97987.69;;;11.29;100.00
5595;BME280;1003;48.002;7.788;2023-04-21T08:57:39;97994.72;;;11.19;100.00
5595;BME280;1003;48.002;7.788;2023-04-21T09:00:08;97984.94;;;11.10;100.00
5595;BME280;1003;48.002;7.788;2023-04-21T09:02:54;98000.44;;;11.49;100.00
5595;BME280;1003;48.002;7.788;2023-04-21T09:05:23;97986.75;;;11.58;100.00
5595;BME280;1003;48.002;7.788;2023-04-21T09:07:52;97985.69;;;11.12;100.00
5595;BME280;1003;48.002;7.788;2023-04-21T09:10:24;97981.47;;;11.14;100.00
5595;BME280;1003;48.002;7.788;2023-04-21T09:12:53;97975.78;;;11.34;100.00
5595;BME280;1003;48.002;7.788;2023-04-21T09:15:20;97962.03;;;11.44;100.00
5595;BME280;1003;48.002;7.788;2023-04-21T09:17:55;97977.13;;;11.44;100.00
5595;BME280;1003;48.002;7.788;2023-04-21T09:20:23;97976.72;;;12.06;100.00
5595;BME280;1003;48.002;7.788;2023-04-21T09:22:50;97965.25;;;12.21;100.00
5595;BME280;1003;48.002;7.788;2023-04-21T09:25:19;97970.47;;;11.68;100.00
5595;BME280;1003;48.002;7.788;2023-04-21T09:27:47;97970.00;;;11.82;100.00
5595;BME280;1003;48.002;7.788;2023-04-21T09:30:18;97969.53;;;11.96;100.00
5595;BME280;1003;48.002;7.788;2023-04-21T09:32:45;97980.66;;;11.90;100.00
5595;BME280;1003;48.002;7.788;2023-04-21T09:35:14;97980.53;;;11.93;100.00
5595;BME280;1003;48.002;7.788;2023-04-21T09:37:43;97977.69;;;12.02;100.00
5595;BME280;1003;48.002;7.788;2023-04-21T09:40:12;97987.81;;;12.24;100.00
5595;BME280;1003;48.002;7.788;2023-04-21T09:42:40;97985.94;;;11.82;100.00
5595;BME280;1003;48.002;7.788;2023-04-21T09:45:09;97991.19;;;12.00;100.00
5595;BME280;1003;48.002;7.788;2023-04-21T09:47:40;97984.59;;;12.44;100.00
5595;BME280;1003;48.002;7.788;2023-04-21T09:50:10;97983.38;;;12.54;100.00
5595;BME280;1003;48.002;7.788;2023-04-21T09:52:40;97989.91;;;12.80;100.00
5595;BME280;1003;48.002;7.788;2023-04-21T09:55:11;98005.25;;;12.52;100.00
5595;BME280;1003;48.002;7.788;2023-04-21T09:57:41;98016.00;;;13.01;100.00
5595;BME280;1003;48.002;7.788;2023-04-21T10:00:11;98044.78;;;12.75;100.00
5595;BME280;1003;48.002;7.788;2023-04-21T10:02:43;98062.97;;;13.27;100.00
5595;BME280;1003;48.002;7.788;2023-04-21T10:05:11;98085.31;;;13.58;100.00
5595;BME280;1003;48.002;7.788;2023-04-21T10:07:39;98109.56;;;12.95;100.00
5595;BME280;1003;48.002;7.788;2023-04-21T10:10:12;98080.38;;;13.11;100.00
5595;BME280;1003;48.002;7.788;2023-04-21T10:12:43;98078.84;;;13.07;100.00
5595;BME280;1003;48.002;7.788;2023-04-21T10:15:30;98078.66;;;13.35;100.00
5595;BME280;1003;48.002;7.788;2023-04-21T10:18:15;98076.97;;;13.34;100.00
5595;BME280;1003;48.002;7.788;2023-04-21T10:20:53;98095.91;;;13.24;100.00
5595;BME280;1003;48.002;7.788;2023-04-21T10:23:32;98111.75;;;13.28;100.00
5595;BME280;1003;48.002;7.788;2023-04-21T10:26:05;98114.78;;;12.91;100.00
5595;BME280;1003;48.002;7.788;2023-04-21T10:28:52;98100.84;;;13.04;100.00
5595;BME280;1003;48.002;7.788;2023-04-21T10:31:23;98097.00;;;13.39;100.00
5595;BME280;1003;48.002;7.788;2023-04-21T10:34:28;98096.88;;;13.20;100.00
5595;BME280;1003;48.002;7.788;2023-04-21T10:37:20;98111.13;;;13.65;100.00
5595;BME280;1003;48.002;7.788;2023-04-21T10:39:56;98103.88;;;13.35;100.00
5595;BME280;1003;48.002;7.788;2023-04-21T10:42:33;98104.53;;;12.95;100.00
5595;BME280;1003;48.002;7.788;2023-04-21T10:45:10;98114.94;;;13.09;100.00
5595;BME280;1003;48.002;7.788;2023-04-21T10:47:44;98125.28;;;13.69;100.00
5595;BME280;1003;48.002;7.788;2023-04-21T10:50:14;98141.97;;;14.14;100.00
5595;BME280;1003;48.002;7.788;2023-04-21T10:52:51;98149.97;;;13.83;100.00
5595;BME280;1003;48.002;7.788;2023-04-21T10:55:21;98151.53;;;14.28;100.00
5595;BME280;1003;48.002;7.788;2023-04-21T10:57:54;98157.41;;;14.88;100.00
5595;BME280;1003;48.002;7.788;2023-04-21T11:00:23;98183.13;;;15.16;100.00
5595;BME280;1003;48.002;7.788;2023-04-21T11:02:59;98206.31;;;15.45;100.00
5595;BME280;1003;48.002;7.788;2023-04-21T11:05:33;98209.44;;;16.40;100.00
5595;BME280;1003;48.002;7.788;2023-04-21T11:08:10;98239.72;;;17.11;100.00
5595;BME280;1003;48.002;7.788;2023-04-21T11:10:52;98277.59;;;17.31;100.00
5595;BME280;1003;48.002;7.788;2023-04-21T11:13:21;98319.28;;;16.23;100.00
5595;BME280;1003;48.002;7.788;2023-04-21T11:15:57;98313.03;;;16.30;100.00
5595;BME280;1003;48.002;7.788;2023-04-21T11:18:37;98322.41;;;16.82;100.00
5595;BME280;1003;48.002;7.788;2023-04-21T11:21:11;98337.03;;;16.94;100.00
5595;BME280;1003;48.002;7.788;2023-04-21T11:23:47;98339.13;;;16.68;100.00
5595;BME280;1003;48.002;7.788;2023-04-21T11:26:16;98336.50;;;16.70;100.00
5595;BME280;1003;48.002;7.788;2023-04-21T11:28:47;98326.38;;;15.97;100.00
5595;BME280;1003;48.002;7.788;2023-04-21T11:31:15;98303.50;;;16.35;100.00
5595;BME280;1003;48.002;7.788;2023-04-21T11:33:42;98304.47;;;16.67;100.00
5595;BME280;1003;48.002;7.788;2023-04-21T11:36:09;98318.56;;;16.21;100.00
5595;BME280;1003;48.002;7.788;2023-04-21T11:38:38;98303.34;;;16.56;100.00
5595;BME280;1003;48.002;7.788;2023-04-21T11:41:07;98298.28;;;17.08;100.00
5595;BME280;1003;48.002;7.788;2023-04-21T11:43:37;98311.47;;;17.14;100.00
5595;BME280;1003;48.002;7.788;2023-04-21T11:46:12;98320.69;;;17.32;100.00
5595;BME280;1003;48.002;7.788;2023-04-21T11:48:39;98327.38;;;17.51;100.00
5595;BME280;1003;48.002;7.788;2023-04-21T11:51:14;98333.28;;;17.67;100.00
5595;BME280;1003;48.002;7.788;2023-04-21T11:53:41;98326.28;;;17.72;100.00
5595;BME280;1003;48.002;7.788;2023-04-21T11:56:09;98331.00;;;17.63;100.00
5595;BME280;1003;48.002;7.788;2023-04-21T11:58:38;98327.06;;;17.24;100.00
5595;BME280;1003;48.002;7.788;2023-04-21T12:01:09;98314.28;;;16.92;100.00
5595;BME280;1003;48.002;7.788;2023-04-21T12:03:36;98313.16;;;17.31;100.00
5595;BME280;1003;48.002;7.788;2023-04-21T12:06:03;98328.06;;;17.37;100.00
5595;BME280;1003;48.002;7.788;2023-04-21T12:08:32;98339.63;;;17.43;100.00
5595;BME280;1003;48.002;7.788;2023-04-21T12:11:01;98336.94;;;17.46;100.00
5595;BME280;1003;48.002;7.788;2023-04-21T12:13:28;98320.72;;;17.48;100.00
5595;BME280;1003;48.002;7.788;2023-04-21T12:16:02;98308.28;;;16.93;100.00
5595;BME280;1003;48.002;7.788;2023-04-21T12:18:31;98316.06;;;17.08;100.00
5595;BME280;1003;48.002;7.788;2023-04-21T12:21:01;98324.22;;;17.79;100.00
5595;BME280;1003;48.002;7.788;2023-04-21T12:23:28;98331.06;;;17.45;100.00
5595;BME280;1003;48.002;7.788;2023-04-21T12:25:56;98352.69;;;18.01;100.00
5595;BME280;1003;48.002;7.788;2023-04-21T12:28:23;98366.53;;;17.80;100.00
5595;BME280;1003;48.002;7.788;2023-04-21T12:30:51;98366.47;;;17.97;100.00
5595;BME280;1003;48.002;7.788;2023-04-21T12:33:19;98367.69;;;18.06;100.00
5595;BME280;1003;48.002;7.788;2023-04-21T12:35:46;98369.78;;;17.66;100.00
5595;BME280;1003;48.002;7.788;2023-04-21T12:38:13;98357.38;;;17.27;100.00
5595;BME280;1003;48.002;7.788;2023-04-21T12:40:40;98365.63;;;17.15;100.00
5595;BME280;1003;48.002;7.788;2023-04-21T12:43:07;98364.28;;;16.73;100.00
5595;BME280;1003;48.002;7.788;2023-04-21T12:45:35;98361.75;;;17.08;100.00
5595;BME280;1003;48.002;7.788;2023-04-21T12:48:02;98366.06;;;17.56;100.00
5595;BME280;1003;48.002;7.788;2023-04-21T12:50:31;98372.88;;;17.55;100.00
5595;BME280;1003;48.002;7.788;2023-04-21T12:52:58;98378.47;;;17.29;100.00
5595;BME280;1003;48.002;7.788;2023-04-21T12:55:25;98387.41;;;17.36;100.00
5595;BME280;1003;48.002;7.788;2023-04-21T12:57:52;98387.13;;;17.58;100.00
5595;BME280;1003;48.002;7.788;2023-04-21T13:00:20;98387.31;;;17.55;100.00
5595;BME280;1003;48.002;7.788;2023-04-21T13:02:47;98376.34;;;17.37;100.00
5595;BME280;1003;48.002;7.788;2023-04-21T13:05:14;98371.00;;;17.09;100.00
5595;BME280;1003;48.002;7.788;2023-04-21T13:07:43;98369.81;;;16.81;100.00
5595;BME280;1003;48.002;7.788;2023-04-21T13:10:10;98364.28;;;16.73;100.00
5595;BME280;1003;48.002;7.788;2023-04-21T13:12:37;98363.03;;;16.99;100.00
5595;BME280;1003;48.002;7.788;2023-04-21T13:15:07;98363.47;;;16.72;100.00
5595;BME280;1003;48.002;7.788;2023-04-21T13:17:35;98370.59;;;17.00;100.00
5595;BME280;1003;48.002;7.788;2023-04-21T13:20:03;98372.34;;;16.81;100.00